sensor_id;sensor_type;location;lat;lon;timestamp;P1;durP1;ratioP1;P2;durP2;ratioP2
81529;SDS011;71504;47.052;15.438;2023-07-22T00:02:23;7.88;;;4.03;;
81529;SDS011;71504;47.052;15.438;2023-07-22T00:04:50;7.35;;;4.25;;
81529;SDS011;71504;47.052;15.438;2023-07-22T00:07:17;7.20;;;4.82;;
81529;SDS011;71504;47.052;15.438;2023-07-22T00:09:44;9.48;;;4.75;;
81529;SDS011;71504;47.052;15.438;2023-07-22T00:12:10;7.22;;;4.50;;
81529;SDS011;71504;47.052;15.438;2023-07-22T00:14:41;7.35;;;4.80;;
81529;SDS011;71504;47.052;15.438;2023-07-22T00:17:08;8.55;;;4.75;;
81529;SDS011;71504;47.052;15.438;2023-07-22T00:19:34;6.32;;;4.70;;
81529;SDS011;71504;47.052;15.438;2023-07-22T00:22:01;7.88;;;4.90;;
81529;SDS011;71504;47.052;15.438;2023-07-22T00:24:28;9.45;;;5.60;;
81529;SDS011;71504;47.052;15.438;2023-07-22T00:26:54;9.35;;;6.47;;
81529;SDS011;71504;47.052;15.438;2023-07-22T00:29:21;8.25;;;5.00;;
81529;SDS011;71504;47.052;15.438;2023-07-22T00:31:47;5.78;;;4.68;;
81529;SDS011;71504;47.052;15.438;2023-07-22T00:34:14;7.72;;;4.35;;
81529;SDS011;71504;47.052;15.438;2023-07-22T00:36:41;9.50;;;5.22;;
81529;SDS011;71504;47.052;15.438;2023-07-22T00:39:09;7.50;;;3.67;;
81529;SDS011;71504;47.052;15.438;2023-07-22T00:41:39;5.18;;;3.80;;
81529;SDS011;71504;47.052;15.438;2023-07-22T00:46:34;7.22;;;3.72;;
81529;SDS011;71504;47.052;15.438;2023-07-22T00:49:00;6.45;;;3.33;;
81529;SDS011;71504;47.052;15.438;2023-07-22T00:51:27;6.78;;;4.43;;
81529;SDS011;71504;47.052;15.438;2023-07-22T00:53:53;7.60;;;3.92;;
81529;SDS011;71504;47.052;15.438;2023-07-22T00:56:20;8.35;;;4.15;;
81529;SDS011;71504;47.052;15.438;2023-07-22T00:58:46;6.25;;;3.55;;
81529;SDS011;71504;47.052;15.438;2023-07-22T01:01:13;5.00;;;3.65;;
81529;SDS011;71504;47.052;15.438;2023-07-22T01:03:40;4.97;;;3.10;;
81529;SDS011;71504;47.052;15.438;2023-07-22T01:06:06;8.48;;;4.20;;
81529;SDS011;71504;47.052;15.438;2023-07-22T01:08:33;8.27;;;5.60;;
81529;SDS011;71504;47.052;15.438;2023-07-22T01:10:59;9.52;;;4.95;;
81529;SDS011;71504;47.052;15.438;2023-07-22T01:13:26;6.40;;;4.50;;
81529;SDS011;71504;47.052;15.438;2023-07-22T01:15:52;5.57;;;4.00;;
81529;SDS011;71504;47.052;15.438;2023-07-22T01:18:19;7.72;;;4.35;;
81529;SDS011;71504;47.052;15.438;2023-07-22T01:20:46;6.20;;;4.20;;
81529;SDS011;71504;47.052;15.438;2023-07-22T01:23:13;7.50;;;4.43;;
81529;SDS011;71504;47.052;15.438;2023-07-22T01:25:39;10.52;;;4.63;;
81529;SDS011;71504;47.052;15.438;2023-07-22T01:28:09;8.10;;;4.03;;
81529;SDS011;71504;47.052;15.438;2023-07-22T01:30:36;6.47;;;4.43;;
81529;SDS011;71504;47.052;15.438;2023-07-22T01:33:03;8.10;;;4.43;;
81529;SDS011;71504;47.052;15.438;2023-07-22T01:35:29;6.15;;;4.25;;
81529;SDS011;71504;47.052;15.438;2023-07-22T01:37:56;5.63;;;4.18;;
81529;SDS011;71504;47.052;15.438;2023-07-22T01:40:24;7.30;;;3.80;;
81529;SDS011;71504;47.052;15.438;2023-07-22T01:42:51;10.98;;;4.65;;
81529;SDS011;71504;47.052;15.438;2023-07-22T01:45:17;11.50;;;5.25;;
81529;SDS011;71504;47.052;15.438;2023-07-22T01:47:44;9.52;;;4.82;;
81529;SDS011;71504;47.052;15.438;2023-07-22T01:50:10;7.07;;;4.53;;
81529;SDS011;71504;47.052;15.438;2023-07-22T01:52:37;8.23;;;4.60;;
81529;SDS011;71504;47.052;15.438;2023-07-22T01:55:03;6.78;;;4.38;;
81529;SDS011;71504;47.052;15.438;2023-07-22T01:57:34;6.68;;;4.03;;
81529;SDS011;71504;47.052;15.438;2023-07-22T02:00:00;8.00;;;4.18;;
81529;SDS011;71504;47.052;15.438;2023-07-22T02:02:28;7.07;;;3.95;;
81529;SDS011;71504;47.052;15.438;2023-07-22T02:04:55;6.55;;;4.70;;
81529;SDS011;71504;47.052;15.438;2023-07-22T02:07:22;12.20;;;4.68;;
81529;SDS011;71504;47.052;15.438;2023-07-22T02:09:51;9.55;;;4.47;;
81529;SDS011;71504;47.052;15.438;2023-07-22T02:12:18;5.95;;;3.97;;
81529;SDS011;71504;47.052;15.438;2023-07-22T02:14:46;9.45;;;4.72;;
81529;SDS011;71504;47.052;15.438;2023-07-22T02:17:12;7.90;;;4.43;;
81529;SDS011;71504;47.052;15.438;2023-07-22T02:19:38;7.30;;;3.83;;
81529;SDS011;71504;47.052;15.438;2023-07-22T02:22:05;6.78;;;4.18;;
81529;SDS011;71504;47.052;15.438;2023-07-22T02:24:32;5.25;;;3.55;;
81529;SDS011;71504;47.052;15.438;2023-07-22T02:26:59;7.45;;;4.38;;
81529;SDS011;71504;47.052;15.438;2023-07-22T02:29:25;10.05;;;3.88;;
81529;SDS011;71504;47.052;15.438;2023-07-22T02:31:52;6.82;;;3.50;;
81529;SDS011;71504;47.052;15.438;2023-07-22T02:34:18;6.05;;;3.85;;
81529;SDS011;71504;47.052;15.438;2023-07-22T02:36:45;6.22;;;3.85;;
81529;SDS011;71504;47.052;15.438;2023-07-22T02:39:11;8.48;;;4.00;;
81529;SDS011;71504;47.052;15.438;2023-07-22T02:41:39;6.78;;;4.20;;
81529;SDS011;71504;47.052;15.438;2023-07-22T02:44:06;7.13;;;4.07;;
81529;SDS011;71504;47.052;15.438;2023-07-22T02:46:33;7.75;;;4.07;;
81529;SDS011;71504;47.052;15.438;2023-07-22T02:49:00;5.95;;;3.72;;
81529;SDS011;71504;47.052;15.438;2023-07-22T02:51:26;7.63;;;3.95;;
81529;SDS011;71504;47.052;15.438;2023-07-22T02:53:52;7.20;;;4.10;;
81529;SDS011;71504;47.052;15.438;2023-07-22T02:56:19;5.70;;;3.33;;
81529;SDS011;71504;47.052;15.438;2023-07-22T02:58:45;7.47;;;3.95;;
81529;SDS011;71504;47.052;15.438;2023-07-22T03:01:13;8.80;;;3.90;;
81529;SDS011;71504;47.052;15.438;2023-07-22T03:03:39;6.70;;;3.78;;
81529;SDS011;71504;47.052;15.438;2023-07-22T03:06:06;7.38;;;4.57;;
81529;SDS011;71504;47.052;15.438;2023-07-22T03:08:35;6.32;;;3.97;;
81529;SDS011;71504;47.052;15.438;2023-07-22T03:11:02;6.82;;;3.70;;
81529;SDS011;71504;47.052;15.438;2023-07-22T03:13:29;5.30;;;3.58;;
81529;SDS011;71504;47.052;15.438;2023-07-22T03:15:56;6.60;;;3.63;;
81529;SDS011;71504;47.052;15.438;2023-07-22T03:18:22;6.03;;;4.03;;
81529;SDS011;71504;47.052;15.438;2023-07-22T03:20:49;7.70;;;4.18;;
81529;SDS011;71504;47.052;15.438;2023-07-22T03:23:17;6.53;;;4.07;;
81529;SDS011;71504;47.052;15.438;2023-07-22T03:25:44;10.38;;;3.80;;
81529;SDS011;71504;47.052;15.438;2023-07-22T03:28:11;7.88;;;3.63;;
81529;SDS011;71504;47.052;15.438;2023-07-22T03:30:37;5.25;;;3.58;;
81529;SDS011;71504;47.052;15.438;2023-07-22T03:33:06;5.80;;;3.63;;
81529;SDS011;71504;47.052;15.438;2023-07-22T03:35:33;5.55;;;3.70;;
81529;SDS011;71504;47.052;15.438;2023-07-22T03:38:00;6.13;;;3.85;;
81529;SDS011;71504;47.052;15.438;2023-07-22T03:40:27;10.15;;;4.82;;
81529;SDS011;71504;47.052;15.438;2023-07-22T03:42:55;8.60;;;4.18;;
81529;SDS011;71504;47.052;15.438;2023-07-22T03:45:23;14.68;;;4.30;;
81529;SDS011;71504;47.052;15.438;2023-07-22T03:47:57;6.80;;;4.35;;
81529;SDS011;71504;47.052;15.438;2023-07-22T03:50:23;5.70;;;3.60;;
81529;SDS011;71504;47.052;15.438;2023-07-22T03:52:50;7.70;;;3.67;;
81529;SDS011;71504;47.052;15.438;2023-07-22T03:55:16;7.32;;;4.75;;
81529;SDS011;71504;47.052;15.438;2023-07-22T03:57:44;8.20;;;4.75;;
81529;SDS011;71504;47.052;15.438;2023-07-22T04:00:11;7.85;;;5.68;;
81529;SDS011;71504;47.052;15.438;2023-07-22T04:02:38;8.63;;;5.03;;
81529;SDS011;71504;47.052;15.438;2023-07-22T04:05:06;9.40;;;4.93;;
81529;SDS011;71504;47.052;15.438;2023-07-22T04:07:33;6.97;;;3.45;;
81529;SDS011;71504;47.052;15.438;2023-07-22T04:10:00;6.38;;;3.63;;
81529;SDS011;71504;47.052;15.438;2023-07-22T04:12:26;4.70;;;3.10;;
81529;SDS011;71504;47.052;15.438;2023-07-22T04:14:54;5.93;;;3.30;;
81529;SDS011;71504;47.052;15.438;2023-07-22T04:17:20;4.72;;;3.03;;
81529;SDS011;71504;47.052;15.438;2023-07-22T04:19:46;6.05;;;3.10;;
81529;SDS011;71504;47.052;15.438;2023-07-22T04:22:13;4.88;;;3.13;;
81529;SDS011;71504;47.052;15.438;2023-07-22T04:24:39;9.98;;;3.78;;
81529;SDS011;71504;47.052;15.438;2023-07-22T04:27:06;6.88;;;3.28;;
81529;SDS011;71504;47.052;15.438;2023-07-22T04:29:32;6.30;;;3.20;;
81529;SDS011;71504;47.052;15.438;2023-07-22T04:31:59;6.07;;;3.08;;
81529;SDS011;71504;47.052;15.438;2023-07-22T04:34:29;6.03;;;3.17;;
81529;SDS011;71504;47.052;15.438;2023-07-22T04:36:55;5.93;;;3.20;;
81529;SDS011;71504;47.052;15.438;2023-07-22T04:39:22;4.80;;;3.42;;
81529;SDS011;71504;47.052;15.438;2023-07-22T04:41:49;7.55;;;4.00;;
81529;SDS011;71504;47.052;15.438;2023-07-22T04:44:15;6.90;;;3.72;;
81529;SDS011;71504;47.052;15.438;2023-07-22T04:46:42;7.75;;;3.60;;
81529;SDS011;71504;47.052;15.438;2023-07-22T04:49:09;4.38;;;3.10;;
81529;SDS011;71504;47.052;15.438;2023-07-22T04:51:35;5.22;;;3.25;;
81529;SDS011;71504;47.052;15.438;2023-07-22T04:54:02;6.78;;;3.80;;
81529;SDS011;71504;47.052;15.438;2023-07-22T04:56:28;5.22;;;3.47;;
81529;SDS011;71504;47.052;15.438;2023-07-22T04:58:55;11.77;;;3.70;;
81529;SDS011;71504;47.052;15.438;2023-07-22T05:01:21;5.15;;;3.35;;
81529;SDS011;71504;47.052;15.438;2023-07-22T05:03:47;7.97;;;3.97;;
81529;SDS011;71504;47.052;15.438;2023-07-22T05:06:14;4.60;;;3.22;;
81529;SDS011;71504;47.052;15.438;2023-07-22T05:08:40;7.15;;;3.42;;
81529;SDS011;71504;47.052;15.438;2023-07-22T05:11:08;6.20;;;3.33;;
81529;SDS011;71504;47.052;15.438;2023-07-22T05:13:34;6.32;;;3.83;;
81529;SDS011;71504;47.052;15.438;2023-07-22T05:16:00;5.25;;;3.35;;
81529;SDS011;71504;47.052;15.438;2023-07-22T05:18:27;7.75;;;3.45;;
81529;SDS011;71504;47.052;15.438;2023-07-22T05:20:53;7.97;;;3.72;;
81529;SDS011;71504;47.052;15.438;2023-07-22T05:23:19;8.50;;;3.83;;
81529;SDS011;71504;47.052;15.438;2023-07-22T05:25:52;6.03;;;3.30;;
81529;SDS011;71504;47.052;15.438;2023-07-22T05:28:19;6.68;;;3.05;;
81529;SDS011;71504;47.052;15.438;2023-07-22T05:30:46;7.25;;;3.70;;
81529;SDS011;71504;47.052;15.438;2023-07-22T05:33:13;5.20;;;3.22;;
81529;SDS011;71504;47.052;15.438;2023-07-22T05:35:39;4.45;;;2.80;;
81529;SDS011;71504;47.052;15.438;2023-07-22T05:38:06;5.13;;;2.95;;
81529;SDS011;71504;47.052;15.438;2023-07-22T05:40:32;6.85;;;3.03;;
81529;SDS011;71504;47.052;15.438;2023-07-22T05:42:59;4.55;;;2.72;;
81529;SDS011;71504;47.052;15.438;2023-07-22T05:45:26;7.82;;;3.03;;
81529;SDS011;71504;47.052;15.438;2023-07-22T05:47:52;7.63;;;3.10;;
81529;SDS011;71504;47.052;15.438;2023-07-22T05:50:18;7.03;;;3.33;;
81529;SDS011;71504;47.052;15.438;2023-07-22T05:52:45;6.40;;;2.83;;
81529;SDS011;71504;47.052;15.438;2023-07-22T05:55:11;3.78;;;2.65;;
81529;SDS011;71504;47.052;15.438;2023-07-22T05:57:38;6.72;;;3.17;;
81529;SDS011;71504;47.052;15.438;2023-07-22T06:00:05;6.43;;;3.05;;
81529;SDS011;71504;47.052;15.438;2023-07-22T06:02:33;6.18;;;3.55;;
81529;SDS011;71504;47.052;15.438;2023-07-22T06:05:00;5.68;;;3.33;;
81529;SDS011;71504;47.052;15.438;2023-07-22T06:07:26;5.93;;;3.03;;
81529;SDS011;71504;47.052;15.438;2023-07-22T06:09:53;5.18;;;2.88;;
81529;SDS011;71504;47.052;15.438;2023-07-22T06:12:19;7.38;;;3.20;;
81529;SDS011;71504;47.052;15.438;2023-07-22T06:14:46;5.07;;;3.17;;
81529;SDS011;71504;47.052;15.438;2023-07-22T06:17:12;5.65;;;3.15;;
81529;SDS011;71504;47.052;15.438;2023-07-22T06:19:39;4.05;;;2.80;;
81529;SDS011;71504;47.052;15.438;2023-07-22T06:22:05;5.18;;;3.20;;
81529;SDS011;71504;47.052;15.438;2023-07-22T06:24:32;6.53;;;2.85;;
81529;SDS011;71504;47.052;15.438;2023-07-22T06:26:58;4.65;;;2.80;;
81529;SDS011;71504;47.052;15.438;2023-07-22T06:29:24;5.68;;;2.90;;
81529;SDS011;71504;47.052;15.438;2023-07-22T06:31:51;8.48;;;3.15;;
81529;SDS011;71504;47.052;15.438;2023-07-22T06:34:17;8.68;;;3.58;;
81529;SDS011;71504;47.052;15.438;2023-07-22T06:36:43;9.88;;;3.55;;
81529;SDS011;71504;47.052;15.438;2023-07-22T06:39:10;6.57;;;3.20;;
81529;SDS011;71504;47.052;15.438;2023-07-22T06:41:36;5.28;;;3.28;;
81529;SDS011;71504;47.052;15.438;2023-07-22T06:44:03;4.53;;;3.08;;
81529;SDS011;71504;47.052;15.438;2023-07-22T06:46:29;7.07;;;3.22;;
81529;SDS011;71504;47.052;15.438;2023-07-22T06:48:56;5.47;;;3.33;;
81529;SDS011;71504;47.052;15.438;2023-07-22T06:51:23;5.60;;;3.72;;
81529;SDS011;71504;47.052;15.438;2023-07-22T06:53:49;5.57;;;3.20;;
81529;SDS011;71504;47.052;15.438;2023-07-22T06:56:15;5.47;;;3.08;;
81529;SDS011;71504;47.052;15.438;2023-07-22T06:58:42;7.10;;;3.05;;
81529;SDS011;71504;47.052;15.438;2023-07-22T07:01:08;6.15;;;3.25;;
81529;SDS011;71504;47.052;15.438;2023-07-22T07:03:35;6.40;;;3.47;;
81529;SDS011;71504;47.052;15.438;2023-07-22T07:06:01;7.45;;;3.47;;
81529;SDS011;71504;47.052;15.438;2023-07-22T07:08:28;4.82;;;3.08;;
81529;SDS011;71504;47.052;15.438;2023-07-22T07:10:55;6.45;;;2.95;;
81529;SDS011;71504;47.052;15.438;2023-07-22T07:13:21;7.20;;;3.60;;
81529;SDS011;71504;47.052;15.438;2023-07-22T07:15:48;6.70;;;3.38;;
81529;SDS011;71504;47.052;15.438;2023-07-22T07:18:14;6.60;;;2.95;;
81529;SDS011;71504;47.052;15.438;2023-07-22T07:20:41;8.38;;;3.70;;
81529;SDS011;71504;47.052;15.438;2023-07-22T07:23:07;4.82;;;3.30;;
81529;SDS011;71504;47.052;15.438;2023-07-22T07:25:34;6.35;;;3.40;;
81529;SDS011;71504;47.052;15.438;2023-07-22T07:28:00;5.75;;;3.40;;
81529;SDS011;71504;47.052;15.438;2023-07-22T07:30:28;6.13;;;3.30;;
81529;SDS011;71504;47.052;15.438;2023-07-22T07:32:54;6.15;;;3.90;;
81529;SDS011;71504;47.052;15.438;2023-07-22T07:35:20;8.30;;;3.90;;
81529;SDS011;71504;47.052;15.438;2023-07-22T07:37:47;5.40;;;3.15;;
81529;SDS011;71504;47.052;15.438;2023-07-22T07:40:13;5.07;;;3.50;;
81529;SDS011;71504;47.052;15.438;2023-07-22T07:42:40;4.72;;;3.25;;
81529;SDS011;71504;47.052;15.438;2023-07-22T07:45:07;5.07;;;3.85;;
81529;SDS011;71504;47.052;15.438;2023-07-22T07:47:33;6.13;;;3.42;;
81529;SDS011;71504;47.052;15.438;2023-07-22T07:50:00;7.45;;;4.15;;
81529;SDS011;71504;47.052;15.438;2023-07-22T07:52:28;5.75;;;3.00;;
81529;SDS011;71504;47.052;15.438;2023-07-22T07:54:55;8.77;;;3.85;;
81529;SDS011;71504;47.052;15.438;2023-07-22T07:57:21;5.05;;;3.58;;
81529;SDS011;71504;47.052;15.438;2023-07-22T07:59:48;6.45;;;3.70;;
81529;SDS011;71504;47.052;15.438;2023-07-22T08:02:14;5.97;;;3.40;;
81529;SDS011;71504;47.052;15.438;2023-07-22T08:04:40;5.50;;;3.80;;
81529;SDS011;71504;47.052;15.438;2023-07-22T08:07:07;7.15;;;3.55;;
81529;SDS011;71504;47.052;15.438;2023-07-22T08:09:34;5.03;;;3.13;;
81529;SDS011;71504;47.052;15.438;2023-07-22T08:12:00;5.63;;;3.65;;
81529;SDS011;71504;47.052;15.438;2023-07-22T08:14:28;5.47;;;3.53;;
81529;SDS011;71504;47.052;15.438;2023-07-22T08:16:55;5.07;;;3.20;;
81529;SDS011;71504;47.052;15.438;2023-07-22T08:19:21;6.57;;;3.35;;
81529;SDS011;71504;47.052;15.438;2023-07-22T08:21:48;5.07;;;3.10;;
81529;SDS011;71504;47.052;15.438;2023-07-22T08:24:14;4.80;;;3.13;;
81529;SDS011;71504;47.052;15.438;2023-07-22T08:26:41;5.93;;;3.17;;
81529;SDS011;71504;47.052;15.438;2023-07-22T08:29:07;5.45;;;3.33;;
81529;SDS011;71504;47.052;15.438;2023-07-22T08:31:34;6.47;;;3.60;;
81529;SDS011;71504;47.052;15.438;2023-07-22T08:34:01;5.72;;;3.17;;
81529;SDS011;71504;47.052;15.438;2023-07-22T08:36:28;5.85;;;2.72;;
81529;SDS011;71504;47.052;15.438;2023-07-22T08:38:54;5.80;;;3.35;;
81529;SDS011;71504;47.052;15.438;2023-07-22T08:41:20;4.22;;;2.90;;
81529;SDS011;71504;47.052;15.438;2023-07-22T08:43:48;4.32;;;2.72;;
81529;SDS011;71504;47.052;15.438;2023-07-22T08:46:19;5.28;;;3.30;;
81529;SDS011;71504;47.052;15.438;2023-07-22T08:48:46;5.97;;;2.80;;
81529;SDS011;71504;47.052;15.438;2023-07-22T08:51:18;6.28;;;3.10;;
81529;SDS011;71504;47.052;15.438;2023-07-22T08:53:45;5.38;;;3.20;;
81529;SDS011;71504;47.052;15.438;2023-07-22T08:56:11;6.60;;;3.22;;
81529;SDS011;71504;47.052;15.438;2023-07-22T08:58:40;4.38;;;2.80;;
81529;SDS011;71504;47.052;15.438;2023-07-22T09:01:08;4.63;;;3.00;;
81529;SDS011;71504;47.052;15.438;2023-07-22T09:03:35;6.88;;;2.97;;
81529;SDS011;71504;47.052;15.438;2023-07-22T09:06:03;5.00;;;3.00;;
81529;SDS011;71504;47.052;15.438;2023-07-22T09:08:31;5.18;;;2.67;;
81529;SDS011;71504;47.052;15.438;2023-07-22T09:10:57;6.78;;;3.03;;
81529;SDS011;71504;47.052;15.438;2023-07-22T09:13:24;4.50;;;2.85;;
81529;SDS011;71504;47.052;15.438;2023-07-22T09:15:51;4.45;;;2.90;;
81529;SDS011;71504;47.052;15.438;2023-07-22T09:18:17;4.55;;;2.65;;
81529;SDS011;71504;47.052;15.438;2023-07-22T09:20:44;6.38;;;3.10;;
81529;SDS011;71504;47.052;15.438;2023-07-22T09:23:11;4.75;;;2.50;;
81529;SDS011;71504;47.052;15.438;2023-07-22T09:25:38;5.35;;;2.83;;
81529;SDS011;71504;47.052;15.438;2023-07-22T09:28:05;4.07;;;2.60;;
81529;SDS011;71504;47.052;15.438;2023-07-22T09:30:38;6.60;;;3.30;;
81529;SDS011;71504;47.052;15.438;2023-07-22T09:33:05;5.55;;;2.72;;
81529;SDS011;71504;47.052;15.438;2023-07-22T09:35:48;6.70;;;2.95;;
81529;SDS011;71504;47.052;15.438;2023-07-22T09:38:22;7.10;;;3.35;;
81529;SDS011;71504;47.052;15.438;2023-07-22T09:40:49;4.40;;;2.70;;
81529;SDS011;71504;47.052;15.438;2023-07-22T09:43:15;4.22;;;2.88;;
81529;SDS011;71504;47.052;15.438;2023-07-22T09:45:46;5.00;;;2.63;;
81529;SDS011;71504;47.052;15.438;2023-07-22T09:48:12;4.15;;;2.45;;
81529;SDS011;71504;47.052;15.438;2023-07-22T09:50:39;4.57;;;2.92;;
81529;SDS011;71504;47.052;15.438;2023-07-22T09:53:06;5.60;;;2.83;;
81529;SDS011;71504;47.052;15.438;2023-07-22T09:55:33;4.47;;;3.03;;
81529;SDS011;71504;47.052;15.438;2023-07-22T09:58:01;4.93;;;2.95;;
81529;SDS011;71504;47.052;15.438;2023-07-22T10:02:55;13.27;;;8.02;;
81529;SDS011;71504;47.052;15.438;2023-07-22T10:05:22;4.95;;;2.78;;
81529;SDS011;71504;47.052;15.438;2023-07-22T10:07:52;4.70;;;2.95;;
81529;SDS011;71504;47.052;15.438;2023-07-22T10:10:24;4.22;;;2.80;;
81529;SDS011;71504;47.052;15.438;2023-07-22T10:12:51;5.60;;;2.75;;
81529;SDS011;71504;47.052;15.438;2023-07-22T10:15:20;7.07;;;2.97;;
81529;SDS011;71504;47.052;15.438;2023-07-22T10:17:46;4.28;;;2.90;;
81529;SDS011;71504;47.052;15.438;2023-07-22T10:20:13;4.50;;;2.70;;
81529;SDS011;71504;47.052;15.438;2023-07-22T10:22:43;4.03;;;2.42;;
81529;SDS011;71504;47.052;15.438;2023-07-22T10:25:19;4.43;;;2.72;;
81529;SDS011;71504;47.052;15.438;2023-07-22T10:27:49;4.47;;;2.78;;
81529;SDS011;71504;47.052;15.438;2023-07-22T10:30:17;4.70;;;2.60;;
81529;SDS011;71504;47.052;15.438;2023-07-22T10:32:45;3.60;;;2.60;;
81529;SDS011;71504;47.052;15.438;2023-07-22T10:35:12;5.43;;;2.90;;
81529;SDS011;71504;47.052;15.438;2023-07-22T10:37:46;4.65;;;3.00;;
81529;SDS011;71504;47.052;15.438;2023-07-22T10:40:26;6.28;;;3.10;;
81529;SDS011;71504;47.052;15.438;2023-07-22T10:45:25;3.50;;;2.85;;
81529;SDS011;71504;47.052;15.438;2023-07-22T10:48:03;6.00;;;3.05;;
81529;SDS011;71504;47.052;15.438;2023-07-22T10:50:38;5.75;;;3.30;;
81529;SDS011;71504;47.052;15.438;2023-07-22T10:53:06;5.68;;;3.60;;
81529;SDS011;71504;47.052;15.438;2023-07-22T10:55:33;6.53;;;3.13;;
81529;SDS011;71504;47.052;15.438;2023-07-22T10:58:03;4.45;;;2.85;;
81529;SDS011;71504;47.052;15.438;2023-07-22T11:00:30;4.95;;;3.08;;
81529;SDS011;71504;47.052;15.438;2023-07-22T11:03:09;4.15;;;2.83;;
81529;SDS011;71504;47.052;15.438;2023-07-22T11:05:49;5.20;;;2.90;;
81529;SDS011;71504;47.052;15.438;2023-07-22T11:08:16;4.38;;;2.90;;
81529;SDS011;71504;47.052;15.438;2023-07-22T11:10:52;4.75;;;3.38;;
81529;SDS011;71504;47.052;15.438;2023-07-22T11:13:28;6.15;;;3.22;;
81529;SDS011;71504;47.052;15.438;2023-07-22T11:15:58;4.72;;;3.10;;
81529;SDS011;71504;47.052;15.438;2023-07-22T11:18:42;7.50;;;3.40;;
81529;SDS011;71504;47.052;15.438;2023-07-22T11:21:09;4.50;;;3.20;;
81529;SDS011;71504;47.052;15.438;2023-07-22T11:23:36;4.55;;;2.88;;
81529;SDS011;71504;47.052;15.438;2023-07-22T11:26:03;7.00;;;3.72;;
81529;SDS011;71504;47.052;15.438;2023-07-22T11:28:30;4.28;;;2.92;;
81529;SDS011;71504;47.052;15.438;2023-07-22T11:30:57;6.13;;;3.00;;
81529;SDS011;71504;47.052;15.438;2023-07-22T11:33:26;5.05;;;3.15;;
81529;SDS011;71504;47.052;15.438;2023-07-22T11:35:52;5.60;;;3.22;;
81529;SDS011;71504;47.052;15.438;2023-07-22T11:38:19;5.05;;;3.13;;
81529;SDS011;71504;47.052;15.438;2023-07-22T11:40:45;4.70;;;2.90;;
81529;SDS011;71504;47.052;15.438;2023-07-22T11:43:12;4.47;;;2.88;;
81529;SDS011;71504;47.052;15.438;2023-07-22T11:45:40;4.53;;;3.08;;
81529;SDS011;71504;47.052;15.438;2023-07-22T11:48:10;7.80;;;3.00;;
81529;SDS011;71504;47.052;15.438;2023-07-22T11:50:38;6.60;;;3.35;;
81529;SDS011;71504;47.052;15.438;2023-07-22T11:53:04;4.43;;;3.03;;
81529;SDS011;71504;47.052;15.438;2023-07-22T11:55:33;5.03;;;3.08;;
81529;SDS011;71504;47.052;15.438;2023-07-22T11:58:01;4.85;;;2.63;;
81529;SDS011;71504;47.052;15.438;2023-07-22T12:00:28;5.80;;;3.17;;
81529;SDS011;71504;47.052;15.438;2023-07-22T12:02:55;4.65;;;2.83;;
81529;SDS011;71504;47.052;15.438;2023-07-22T12:05:22;8.27;;;3.42;;
81529;SDS011;71504;47.052;15.438;2023-07-22T12:07:49;6.22;;;3.35;;
81529;SDS011;71504;47.052;15.438;2023-07-22T12:10:15;4.63;;;3.03;;
81529;SDS011;71504;47.052;15.438;2023-07-22T12:12:43;4.60;;;3.17;;
81529;SDS011;71504;47.052;15.438;2023-07-22T12:15:15;4.40;;;2.72;;
81529;SDS011;71504;47.052;15.438;2023-07-22T12:17:48;5.22;;;3.10;;
81529;SDS011;71504;47.052;15.438;2023-07-22T12:20:16;5.63;;;3.53;;
81529;SDS011;71504;47.052;15.438;2023-07-22T12:22:43;4.10;;;3.00;;
81529;SDS011;71504;47.052;15.438;2023-07-22T12:25:10;4.57;;;3.20;;
81529;SDS011;71504;47.052;15.438;2023-07-22T12:27:36;5.15;;;3.13;;
81529;SDS011;71504;47.052;15.438;2023-07-22T12:30:04;4.85;;;3.15;;
81529;SDS011;71504;47.052;15.438;2023-07-22T12:32:32;4.97;;;3.30;;
81529;SDS011;71504;47.052;15.438;2023-07-22T12:34:59;5.78;;;3.28;;
81529;SDS011;71504;47.052;15.438;2023-07-22T12:37:26;4.97;;;3.30;;
81529;SDS011;71504;47.052;15.438;2023-07-22T12:39:53;5.50;;;3.17;;
81529;SDS011;71504;47.052;15.438;2023-07-22T12:42:20;6.15;;;3.88;;
81529;SDS011;71504;47.052;15.438;2023-07-22T12:44:46;6.15;;;3.20;;
81529;SDS011;71504;47.052;15.438;2023-07-22T12:47:13;5.13;;;3.25;;
81529;SDS011;71504;47.052;15.438;2023-07-22T12:49:39;6.03;;;3.75;;
81529;SDS011;71504;47.052;15.438;2023-07-22T12:52:06;7.38;;;3.40;;
81529;SDS011;71504;47.052;15.438;2023-07-22T12:54:35;7.50;;;3.83;;
81529;SDS011;71504;47.052;15.438;2023-07-22T12:57:01;4.40;;;3.00;;
81529;SDS011;71504;47.052;15.438;2023-07-22T12:59:28;5.57;;;3.50;;
81529;SDS011;71504;47.052;15.438;2023-07-22T13:01:54;6.03;;;4.22;;
81529;SDS011;71504;47.052;15.438;2023-07-22T13:04:23;6.35;;;3.30;;
81529;SDS011;71504;47.052;15.438;2023-07-22T13:06:50;5.22;;;3.45;;
81529;SDS011;71504;47.052;15.438;2023-07-22T13:09:19;7.10;;;3.75;;
81529;SDS011;71504;47.052;15.438;2023-07-22T13:11:46;6.72;;;3.80;;
81529;SDS011;71504;47.052;15.438;2023-07-22T13:14:13;6.65;;;3.90;;
81529;SDS011;71504;47.052;15.438;2023-07-22T13:16:40;5.97;;;3.40;;
81529;SDS011;71504;47.052;15.438;2023-07-22T13:19:07;8.20;;;3.40;;
81529;SDS011;71504;47.052;15.438;2023-07-22T13:21:34;6.68;;;3.10;;
81529;SDS011;71504;47.052;15.438;2023-07-22T13:24:00;5.38;;;3.22;;
81529;SDS011;71504;47.052;15.438;2023-07-22T13:26:27;10.57;;;3.22;;
81529;SDS011;71504;47.052;15.438;2023-07-22T13:28:53;4.68;;;3.35;;
81529;SDS011;71504;47.052;15.438;2023-07-22T13:31:19;5.82;;;4.03;;
81529;SDS011;71504;47.052;15.438;2023-07-22T13:33:46;5.10;;;3.47;;
81529;SDS011;71504;47.052;15.438;2023-07-22T13:36:12;4.93;;;3.25;;
81529;SDS011;71504;47.052;15.438;2023-07-22T13:38:39;7.43;;;3.35;;
81529;SDS011;71504;47.052;15.438;2023-07-22T13:41:05;5.25;;;3.22;;
81529;SDS011;71504;47.052;15.438;2023-07-22T13:43:32;6.68;;;3.50;;
81529;SDS011;71504;47.052;15.438;2023-07-22T13:45:58;6.32;;;3.60;;
81529;SDS011;71504;47.052;15.438;2023-07-22T13:48:25;4.22;;;3.10;;
81529;SDS011;71504;47.052;15.438;2023-07-22T13:50:51;5.47;;;3.10;;
81529;SDS011;71504;47.052;15.438;2023-07-22T13:53:17;6.53;;;3.53;;
81529;SDS011;71504;47.052;15.438;2023-07-22T13:55:44;7.50;;;3.65;;
81529;SDS011;71504;47.052;15.438;2023-07-22T13:58:10;6.22;;;3.50;;
81529;SDS011;71504;47.052;15.438;2023-07-22T14:00:37;6.82;;;3.30;;
81529;SDS011;71504;47.052;15.438;2023-07-22T14:03:04;4.95;;;3.20;;
81529;SDS011;71504;47.052;15.438;2023-07-22T14:05:31;6.18;;;3.30;;
81529;SDS011;71504;47.052;15.438;2023-07-22T14:07:57;5.70;;;3.17;;
81529;SDS011;71504;47.052;15.438;2023-07-22T14:10:23;4.95;;;3.30;;
81529;SDS011;71504;47.052;15.438;2023-07-22T14:12:50;4.90;;;3.22;;
81529;SDS011;71504;47.052;15.438;2023-07-22T14:15:16;8.43;;;3.75;;
81529;SDS011;71504;47.052;15.438;2023-07-22T14:17:43;6.40;;;3.65;;
81529;SDS011;71504;47.052;15.438;2023-07-22T14:20:10;5.65;;;3.20;;
81529;SDS011;71504;47.052;15.438;2023-07-22T14:22:37;5.90;;;3.50;;
81529;SDS011;71504;47.052;15.438;2023-07-22T14:25:04;5.63;;;3.55;;
81529;SDS011;71504;47.052;15.438;2023-07-22T14:27:30;5.05;;;2.90;;
81529;SDS011;71504;47.052;15.438;2023-07-22T14:29:57;4.47;;;2.78;;
81529;SDS011;71504;47.052;15.438;2023-07-22T14:32:23;5.55;;;3.35;;
81529;SDS011;71504;47.052;15.438;2023-07-22T14:34:49;7.55;;;3.58;;
81529;SDS011;71504;47.052;15.438;2023-07-22T14:37:17;5.55;;;3.22;;
81529;SDS011;71504;47.052;15.438;2023-07-22T14:39:43;4.35;;;3.40;;
81529;SDS011;71504;47.052;15.438;2023-07-22T14:42:10;5.10;;;3.40;;